sensor_id;sensor_type;location;lat;lon;timestamp;P1;durP1;ratioP1;P2;durP2;ratioP2
46589;SDS011;32313;48.722;9.362;2022-10-16T00:00:42;7.43;;;5.30;;
46589;SDS011;32313;48.722;9.362;2022-10-16T00:03:09;8.33;;;5.57;;
46589;SDS011;32313;48.722;9.362;2022-10-16T00:05:42;8.37;;;5.70;;
46589;SDS011;32313;48.722;9.362;2022-10-16T00:08:09;7.87;;;6.37;;
46589;SDS011;32313;48.722;9.362;2022-10-16T00:10:38;7.20;;;6.27;;
46589;SDS011;32313;48.722;9.362;2022-10-16T00:13:04;8.67;;;5.27;;
46589;SDS011;32313;48.722;9.362;2022-10-16T00:15:32;7.27;;;6.40;;
46589;SDS011;32313;48.722;9.362;2022-10-16T00:18:01;7.07;;;5.67;;
46589;SDS011;32313;48.722;9.362;2022-10-16T00:20:28;8.60;;;6.17;;
46589;SDS011;32313;48.722;9.362;2022-10-16T00:22:54;12.37;;;6.17;;
46589;SDS011;32313;48.722;9.362;2022-10-16T00:25:20;7.73;;;5.20;;
46589;SDS011;32313;48.722;9.362;2022-10-16T00:27:46;5.87;;;5.07;;
46589;SDS011;32313;48.722;9.362;2022-10-16T00:30:11;7.57;;;5.90;;
46589;SDS011;32313;48.722;9.362;2022-10-16T00:32:37;9.27;;;6.23;;
46589;SDS011;32313;48.722;9.362;2022-10-16T00:35:03;9.07;;;5.70;;
46589;SDS011;32313;48.722;9.362;2022-10-16T00:37:29;10.43;;;6.07;;
46589;SDS011;32313;48.722;9.362;2022-10-16T00:39:54;12.33;;;6.23;;
46589;SDS011;32313;48.722;9.362;2022-10-16T00:42:20;7.13;;;6.07;;
46589;SDS011;32313;48.722;9.362;2022-10-16T00:44:51;9.60;;;6.50;;
46589;SDS011;32313;48.722;9.362;2022-10-16T00:47:29;10.90;;;6.37;;
46589;SDS011;32313;48.722;9.362;2022-10-16T00:50:10;9.20;;;6.33;;
46589;SDS011;32313;48.722;9.362;2022-10-16T00:52:44;11.50;;;6.40;;
46589;SDS011;32313;48.722;9.362;2022-10-16T00:55:12;7.17;;;6.10;;
46589;SDS011;32313;48.722;9.362;2022-10-16T00:57:38;11.97;;;6.03;;
46589;SDS011;32313;48.722;9.362;2022-10-16T01:00:05;7.23;;;6.23;;
46589;SDS011;32313;48.722;9.362;2022-10-16T01:02:33;10.13;;;7.20;;
46589;SDS011;32313;48.722;9.362;2022-10-16T01:04:59;7.23;;;5.97;;
46589;SDS011;32313;48.722;9.362;2022-10-16T01:12:50;9.43;;;6.33;;
46589;SDS011;32313;48.722;9.362;2022-10-16T01:15:38;12.63;;;7.73;;
46589;SDS011;32313;48.722;9.362;2022-10-16T01:18:31;9.80;;;7.00;;
46589;SDS011;32313;48.722;9.362;2022-10-16T01:21:04;12.60;;;7.27;;
46589;SDS011;32313;48.722;9.362;2022-10-16T01:23:38;11.80;;;7.33;;
46589;SDS011;32313;48.722;9.362;2022-10-16T01:29:01;13.23;;;8.57;;
46589;SDS011;32313;48.722;9.362;2022-10-16T01:31:33;12.23;;;7.97;;
46589;SDS011;32313;48.722;9.362;2022-10-16T01:34:05;11.80;;;7.37;;
46589;SDS011;32313;48.722;9.362;2022-10-16T01:36:56;10.90;;;7.83;;
46589;SDS011;32313;48.722;9.362;2022-10-16T01:39:29;11.03;;;7.63;;
46589;SDS011;32313;48.722;9.362;2022-10-16T01:42:03;10.43;;;7.40;;
46589;SDS011;32313;48.722;9.362;2022-10-16T01:44:33;9.37;;;7.27;;
46589;SDS011;32313;48.722;9.362;2022-10-16T01:47:01;11.77;;;6.93;;
46589;SDS011;32313;48.722;9.362;2022-10-16T01:49:30;11.27;;;7.27;;
46589;SDS011;32313;48.722;9.362;2022-10-16T01:51:59;10.60;;;7.47;;
46589;SDS011;32313;48.722;9.362;2022-10-16T01:54:27;9.27;;;6.47;;
46589;SDS011;32313;48.722;9.362;2022-10-16T01:56:56;7.70;;;6.97;;
46589;SDS011;32313;48.722;9.362;2022-10-16T01:59:24;13.13;;;7.77;;
46589;SDS011;32313;48.722;9.362;2022-10-16T02:01:52;12.00;;;7.17;;
46589;SDS011;32313;48.722;9.362;2022-10-16T02:04:29;10.10;;;7.50;;
46589;SDS011;32313;48.722;9.362;2022-10-16T02:07:01;10.73;;;6.93;;
46589;SDS011;32313;48.722;9.362;2022-10-16T02:09:27;11.37;;;7.00;;
46589;SDS011;32313;48.722;9.362;2022-10-16T02:11:54;7.53;;;6.47;;
46589;SDS011;32313;48.722;9.362;2022-10-16T02:14:24;7.67;;;6.53;;
46589;SDS011;32313;48.722;9.362;2022-10-16T02:16:51;8.33;;;6.30;;
46589;SDS011;32313;48.722;9.362;2022-10-16T02:19:17;7.33;;;5.50;;
46589;SDS011;32313;48.722;9.362;2022-10-16T02:24:22;11.93;;;6.40;;
46589;SDS011;32313;48.722;9.362;2022-10-16T02:27:22;9.80;;;5.67;;
46589;SDS011;32313;48.722;9.362;2022-10-16T02:29:52;8.93;;;6.20;;
46589;SDS011;32313;48.722;9.362;2022-10-16T02:32:24;7.10;;;6.40;;
46589;SDS011;32313;48.722;9.362;2022-10-16T02:34:55;8.47;;;6.73;;
46589;SDS011;32313;48.722;9.362;2022-10-16T02:37:22;6.67;;;5.57;;
46589;SDS011;32313;48.722;9.362;2022-10-16T02:39:49;8.73;;;6.03;;
46589;SDS011;32313;48.722;9.362;2022-10-16T02:42:17;7.33;;;5.93;;
46589;SDS011;32313;48.722;9.362;2022-10-16T02:44:43;7.13;;;5.73;;
46589;SDS011;32313;48.722;9.362;2022-10-16T02:47:09;8.20;;;5.50;;
46589;SDS011;32313;48.722;9.362;2022-10-16T02:49:35;6.23;;;5.63;;
46589;SDS011;32313;48.722;9.362;2022-10-16T02:52:00;10.50;;;5.53;;
46589;SDS011;32313;48.722;9.362;2022-10-16T02:54:26;8.20;;;5.27;;
46589;SDS011;32313;48.722;9.362;2022-10-16T02:56:52;7.07;;;5.47;;
46589;SDS011;32313;48.722;9.362;2022-10-16T02:59:17;9.50;;;5.27;;
46589;SDS011;32313;48.722;9.362;2022-10-16T03:01:44;6.37;;;5.53;;
46589;SDS011;32313;48.722;9.362;2022-10-16T03:04:10;7.73;;;5.50;;
46589;SDS011;32313;48.722;9.362;2022-10-16T03:06:35;12.83;;;5.83;;
46589;SDS011;32313;48.722;9.362;2022-10-16T03:09:01;9.23;;;5.97;;
46589;SDS011;32313;48.722;9.362;2022-10-16T03:11:27;8.63;;;5.53;;
46589;SDS011;32313;48.722;9.362;2022-10-16T03:13:53;8.40;;;5.50;;
46589;SDS011;32313;48.722;9.362;2022-10-16T03:16:18;6.70;;;5.93;;
46589;SDS011;32313;48.722;9.362;2022-10-16T03:18:47;7.00;;;6.37;;
46589;SDS011;32313;48.722;9.362;2022-10-16T03:21:14;11.00;;;6.67;;
46589;SDS011;32313;48.722;9.362;2022-10-16T03:23:40;10.97;;;5.90;;
46589;SDS011;32313;48.722;9.362;2022-10-16T03:26:06;7.77;;;5.70;;
46589;SDS011;32313;48.722;9.362;2022-10-16T03:28:31;7.00;;;5.77;;
46589;SDS011;32313;48.722;9.362;2022-10-16T03:30:57;5.40;;;4.93;;
46589;SDS011;32313;48.722;9.362;2022-10-16T03:33:23;6.53;;;5.93;;
46589;SDS011;32313;48.722;9.362;2022-10-16T03:35:52;9.37;;;6.23;;
46589;SDS011;32313;48.722;9.362;2022-10-16T03:38:18;8.43;;;5.83;;
46589;SDS011;32313;48.722;9.362;2022-10-16T03:40:45;8.37;;;5.80;;
46589;SDS011;32313;48.722;9.362;2022-10-16T03:43:10;11.77;;;6.53;;
46589;SDS011;32313;48.722;9.362;2022-10-16T03:45:36;6.83;;;5.60;;
46589;SDS011;32313;48.722;9.362;2022-10-16T03:48:02;10.57;;;6.57;;
46589;SDS011;32313;48.722;9.362;2022-10-16T03:50:28;8.57;;;6.80;;
46589;SDS011;32313;48.722;9.362;2022-10-16T03:52:54;7.30;;;6.37;;
46589;SDS011;32313;48.722;9.362;2022-10-16T03:55:20;8.07;;;7.07;;
46589;SDS011;32313;48.722;9.362;2022-10-16T03:57:45;14.53;;;7.80;;
46589;SDS011;32313;48.722;9.362;2022-10-16T04:00:12;8.17;;;7.27;;
46589;SDS011;32313;48.722;9.362;2022-10-16T04:02:38;13.00;;;7.27;;
46589;SDS011;32313;48.722;9.362;2022-10-16T04:05:04;9.90;;;8.27;;
46589;SDS011;32313;48.722;9.362;2022-10-16T04:07:30;9.83;;;7.00;;
46589;SDS011;32313;48.722;9.362;2022-10-16T04:09:56;13.00;;;7.17;;
46589;SDS011;32313;48.722;9.362;2022-10-16T04:12:23;9.50;;;7.70;;
46589;SDS011;32313;48.722;9.362;2022-10-16T04:14:50;8.33;;;7.53;;
46589;SDS011;32313;48.722;9.362;2022-10-16T04:17:16;11.27;;;7.30;;
46589;SDS011;32313;48.722;9.362;2022-10-16T04:19:41;10.10;;;6.47;;
46589;SDS011;32313;48.722;9.362;2022-10-16T04:22:07;12.50;;;7.50;;
46589;SDS011;32313;48.722;9.362;2022-10-16T04:24:33;11.00;;;7.77;;
46589;SDS011;32313;48.722;9.362;2022-10-16T04:26:58;8.00;;;7.27;;
46589;SDS011;32313;48.722;9.362;2022-10-16T04:29:24;7.80;;;7.10;;
46589;SDS011;32313;48.722;9.362;2022-10-16T04:31:50;11.17;;;7.43;;
46589;SDS011;32313;48.722;9.362;2022-10-16T04:34:15;12.60;;;8.43;;
46589;SDS011;32313;48.722;9.362;2022-10-16T04:36:41;8.13;;;7.13;;
46589;SDS011;32313;48.722;9.362;2022-10-16T04:39:07;7.43;;;6.73;;
46589;SDS011;32313;48.722;9.362;2022-10-16T04:41:32;10.87;;;7.67;;
46589;SDS011;32313;48.722;9.362;2022-10-16T04:43:58;8.90;;;7.97;;
46589;SDS011;32313;48.722;9.362;2022-10-16T04:46:24;12.20;;;8.40;;
46589;SDS011;32313;48.722;9.362;2022-10-16T04:48:49;9.53;;;8.03;;
46589;SDS011;32313;48.722;9.362;2022-10-16T04:51:15;9.27;;;7.60;;
46589;SDS011;32313;48.722;9.362;2022-10-16T04:53:41;13.63;;;7.97;;
46589;SDS011;32313;48.722;9.362;2022-10-16T04:56:06;9.27;;;7.40;;
46589;SDS011;32313;48.722;9.362;2022-10-16T04:58:32;11.33;;;7.50;;
46589;SDS011;32313;48.722;9.362;2022-10-16T05:00:58;8.60;;;6.63;;
46589;SDS011;32313;48.722;9.362;2022-10-16T05:03:23;9.77;;;6.83;;
46589;SDS011;32313;48.722;9.362;2022-10-16T05:05:49;7.67;;;6.77;;
46589;SDS011;32313;48.722;9.362;2022-10-16T05:08:15;7.33;;;6.57;;
46589;SDS011;32313;48.722;9.362;2022-10-16T05:10:42;10.97;;;7.30;;
46589;SDS011;32313;48.722;9.362;2022-10-16T05:13:09;8.27;;;7.13;;
46589;SDS011;32313;48.722;9.362;2022-10-16T05:15:35;7.07;;;6.47;;
46589;SDS011;32313;48.722;9.362;2022-10-16T05:18:01;8.03;;;6.27;;
46589;SDS011;32313;48.722;9.362;2022-10-16T05:20:27;14.17;;;7.43;;
46589;SDS011;32313;48.722;9.362;2022-10-16T05:22:53;9.27;;;7.00;;
46589;SDS011;32313;48.722;9.362;2022-10-16T05:25:18;12.87;;;7.30;;
46589;SDS011;32313;48.722;9.362;2022-10-16T05:27:47;9.57;;;7.33;;
46589;SDS011;32313;48.722;9.362;2022-10-16T05:30:13;9.50;;;7.43;;
46589;SDS011;32313;48.722;9.362;2022-10-16T05:32:39;8.30;;;7.10;;
46589;SDS011;32313;48.722;9.362;2022-10-16T05:35:05;10.00;;;6.90;;
46589;SDS011;32313;48.722;9.362;2022-10-16T05:37:31;11.20;;;7.57;;
46589;SDS011;32313;48.722;9.362;2022-10-16T05:39:57;10.63;;;7.23;;
46589;SDS011;32313;48.722;9.362;2022-10-16T05:42:23;7.93;;;6.93;;
46589;SDS011;32313;48.722;9.362;2022-10-16T05:44:48;7.27;;;6.37;;
46589;SDS011;32313;48.722;9.362;2022-10-16T05:47:14;16.10;;;7.43;;
46589;SDS011;32313;48.722;9.362;2022-10-16T05:49:40;8.53;;;6.57;;
46589;SDS011;32313;48.722;9.362;2022-10-16T05:52:05;9.67;;;7.13;;
46589;SDS011;32313;48.722;9.362;2022-10-16T05:54:31;10.30;;;7.40;;
46589;SDS011;32313;48.722;9.362;2022-10-16T05:56:57;12.83;;;7.37;;
46589;SDS011;32313;48.722;9.362;2022-10-16T05:59:22;14.37;;;8.07;;
46589;SDS011;32313;48.722;9.362;2022-10-16T06:01:48;11.10;;;7.87;;
46589;SDS011;32313;48.722;9.362;2022-10-16T06:04:14;8.87;;;7.00;;
46589;SDS011;32313;48.722;9.362;2022-10-16T06:06:39;11.67;;;7.43;;
46589;SDS011;32313;48.722;9.362;2022-10-16T06:09:05;9.63;;;7.13;;
46589;SDS011;32313;48.722;9.362;2022-10-16T06:11:31;7.43;;;6.70;;
46589;SDS011;32313;48.722;9.362;2022-10-16T06:13:59;11.77;;;7.17;;
46589;SDS011;32313;48.722;9.362;2022-10-16T06:16:32;8.63;;;7.03;;
46589;SDS011;32313;48.722;9.362;2022-10-16T06:18:59;13.00;;;7.77;;
46589;SDS011;32313;48.722;9.362;2022-10-16T06:21:25;10.03;;;6.37;;
46589;SDS011;32313;48.722;9.362;2022-10-16T06:23:52;7.87;;;6.53;;
46589;SDS011;32313;48.722;9.362;2022-10-16T06:26:20;11.70;;;6.27;;
46589;SDS011;32313;48.722;9.362;2022-10-16T06:28:47;8.80;;;6.40;;
46589;SDS011;32313;48.722;9.362;2022-10-16T06:31:14;9.00;;;6.17;;
46589;SDS011;32313;48.722;9.362;2022-10-16T06:33:41;9.70;;;6.47;;
46589;SDS011;32313;48.722;9.362;2022-10-16T06:36:08;7.30;;;6.60;;
46589;SDS011;32313;48.722;9.362;2022-10-16T06:38:35;7.83;;;5.90;;
46589;SDS011;32313;48.722;9.362;2022-10-16T06:41:01;16.47;;;6.90;;
46589;SDS011;32313;48.722;9.362;2022-10-16T06:43:30;8.07;;;6.20;;
46589;SDS011;32313;48.722;9.362;2022-10-16T06:45:57;10.43;;;7.00;;
46589;SDS011;32313;48.722;9.362;2022-10-16T06:48:24;9.13;;;5.87;;
46589;SDS011;32313;48.722;9.362;2022-10-16T06:51:03;8.87;;;5.77;;
46589;SDS011;32313;48.722;9.362;2022-10-16T06:53:37;5.73;;;5.03;;
46589;SDS011;32313;48.722;9.362;2022-10-16T06:56:08;9.13;;;5.40;;
46589;SDS011;32313;48.722;9.362;2022-10-16T06:58:37;8.93;;;4.70;;
46589;SDS011;32313;48.722;9.362;2022-10-16T07:01:04;6.43;;;5.10;;
46589;SDS011;32313;48.722;9.362;2022-10-16T07:03:30;8.73;;;4.37;;
46589;SDS011;32313;48.722;9.362;2022-10-16T07:05:56;8.73;;;4.13;;
46589;SDS011;32313;48.722;9.362;2022-10-16T07:08:22;6.67;;;3.27;;
46589;SDS011;32313;48.722;9.362;2022-10-16T07:10:47;7.33;;;3.37;;
46589;SDS011;32313;48.722;9.362;2022-10-16T07:13:13;5.00;;;3.50;;
46589;SDS011;32313;48.722;9.362;2022-10-16T07:15:39;7.17;;;2.97;;
46589;SDS011;32313;48.722;9.362;2022-10-16T07:18:06;4.07;;;3.53;;
46589;SDS011;32313;48.722;9.362;2022-10-16T07:20:32;7.40;;;3.73;;
46589;SDS011;32313;48.722;9.362;2022-10-16T07:22:58;8.23;;;3.90;;
46589;SDS011;32313;48.722;9.362;2022-10-16T07:25:23;8.87;;;3.80;;
46589;SDS011;32313;48.722;9.362;2022-10-16T07:27:49;6.90;;;3.63;;
46589;SDS011;32313;48.722;9.362;2022-10-16T07:30:15;5.37;;;3.40;;
46589;SDS011;32313;48.722;9.362;2022-10-16T07:32:40;6.40;;;3.63;;
46589;SDS011;32313;48.722;9.362;2022-10-16T07:35:06;7.03;;;3.43;;
46589;SDS011;32313;48.722;9.362;2022-10-16T07:37:32;7.93;;;3.53;;
46589;SDS011;32313;48.722;9.362;2022-10-16T07:39:58;7.57;;;3.67;;
46589;SDS011;32313;48.722;9.362;2022-10-16T07:42:23;5.50;;;3.90;;
46589;SDS011;32313;48.722;9.362;2022-10-16T07:44:49;8.30;;;3.80;;
46589;SDS011;32313;48.722;9.362;2022-10-16T07:47:15;4.93;;;3.47;;
46589;SDS011;32313;48.722;9.362;2022-10-16T07:49:40;4.00;;;3.70;;
46589;SDS011;32313;48.722;9.362;2022-10-16T07:52:06;4.60;;;3.63;;
46589;SDS011;32313;48.722;9.362;2022-10-16T07:54:32;10.07;;;4.00;;
46589;SDS011;32313;48.722;9.362;2022-10-16T07:56:57;5.73;;;3.83;;
46589;SDS011;32313;48.722;9.362;2022-10-16T07:59:23;5.00;;;4.50;;
46589;SDS011;32313;48.722;9.362;2022-10-16T08:01:49;6.20;;;4.00;;
46589;SDS011;32313;48.722;9.362;2022-10-16T08:04:15;8.73;;;3.87;;
46589;SDS011;32313;48.722;9.362;2022-10-16T08:06:41;6.73;;;3.73;;
46589;SDS011;32313;48.722;9.362;2022-10-16T08:09:07;7.50;;;3.73;;
46589;SDS011;32313;48.722;9.362;2022-10-16T08:11:33;7.63;;;3.60;;
46589;SDS011;32313;48.722;9.362;2022-10-16T08:13:59;4.00;;;3.70;;
46589;SDS011;32313;48.722;9.362;2022-10-16T08:16:25;5.87;;;3.60;;
46589;SDS011;32313;48.722;9.362;2022-10-16T08:18:51;6.73;;;4.07;;
46589;SDS011;32313;48.722;9.362;2022-10-16T08:21:17;5.00;;;3.90;;
46589;SDS011;32313;48.722;9.362;2022-10-16T08:23:45;7.10;;;3.47;;
46589;SDS011;32313;48.722;9.362;2022-10-16T08:26:11;4.50;;;3.73;;
46589;SDS011;32313;48.722;9.362;2022-10-16T08:28:37;4.20;;;3.37;;
46589;SDS011;32313;48.722;9.362;2022-10-16T08:33:32;4.60;;;3.47;;
46589;SDS011;32313;48.722;9.362;2022-10-16T08:36:00;7.07;;;3.40;;
46589;SDS011;32313;48.722;9.362;2022-10-16T08:38:25;6.73;;;3.37;;
46589;SDS011;32313;48.722;9.362;2022-10-16T08:40:51;6.00;;;4.07;;
46589;SDS011;32313;48.722;9.362;2022-10-16T08:51:26;3.90;;;2.90;;
46589;SDS011;32313;48.722;9.362;2022-10-16T08:53:57;3.20;;;2.90;;
46589;SDS011;32313;48.722;9.362;2022-10-16T08:56:28;4.50;;;3.37;;
46589;SDS011;32313;48.722;9.362;2022-10-16T08:58:54;4.97;;;3.27;;
46589;SDS011;32313;48.722;9.362;2022-10-16T09:01:23;7.37;;;4.10;;
46589;SDS011;32313;48.722;9.362;2022-10-16T09:06:31;6.37;;;4.70;;
46589;SDS011;32313;48.722;9.362;2022-10-16T09:17:37;5.27;;;3.30;;
46589;SDS011;32313;48.722;9.362;2022-10-16T09:22:44;8.23;;;3.27;;
46589;SDS011;32313;48.722;9.362;2022-10-16T09:25:14;4.03;;;2.70;;
46589;SDS011;32313;48.722;9.362;2022-10-16T09:27:42;7.27;;;3.10;;
46589;SDS011;32313;48.722;9.362;2022-10-16T09:30:13;5.13;;;2.57;;
46589;SDS011;32313;48.722;9.362;2022-10-16T09:32:41;3.80;;;2.37;;
46589;SDS011;32313;48.722;9.362;2022-10-16T09:35:13;3.63;;;2.00;;
46589;SDS011;32313;48.722;9.362;2022-10-16T09:37:42;4.17;;;2.50;;
46589;SDS011;32313;48.722;9.362;2022-10-16T09:40:53;3.83;;;2.10;;
46589;SDS011;32313;48.722;9.362;2022-10-16T09:43:02;4.60;;;2.20;;
46589;SDS011;32313;48.722;9.362;2022-10-16T09:45:53;6.90;;;2.50;;
46589;SDS011;32313;48.722;9.362;2022-10-16T09:48:20;4.73;;;2.47;;
46589;SDS011;32313;48.722;9.362;2022-10-16T09:50:55;3.30;;;2.17;;
46589;SDS011;32313;48.722;9.362;2022-10-16T09:53:21;4.40;;;1.87;;
46589;SDS011;32313;48.722;9.362;2022-10-16T09:55:48;3.53;;;2.10;;
46589;SDS011;32313;48.722;9.362;2022-10-16T09:58:15;2.93;;;1.90;;
46589;SDS011;32313;48.722;9.362;2022-10-16T10:00:41;3.40;;;1.90;;
46589;SDS011;32313;48.722;9.362;2022-10-16T10:05:58;3.23;;;1.80;;
46589;SDS011;32313;48.722;9.362;2022-10-16T10:08:26;4.37;;;1.83;;
46589;SDS011;32313;48.722;9.362;2022-10-16T10:10:52;5.47;;;1.70;;
46589;SDS011;32313;48.722;9.362;2022-10-16T10:13:20;5.63;;;1.63;;
46589;SDS011;32313;48.722;9.362;2022-10-16T10:15:47;3.37;;;1.93;;
46589;SDS011;32313;48.722;9.362;2022-10-16T10:18:17;3.50;;;1.87;;
46589;SDS011;32313;48.722;9.362;2022-10-16T10:20:45;3.63;;;1.80;;
46589;SDS011;32313;48.722;9.362;2022-10-16T10:23:20;2.87;;;1.40;;
46589;SDS011;32313;48.722;9.362;2022-10-16T10:31:17;2.10;;;1.60;;
46589;SDS011;32313;48.722;9.362;2022-10-16T10:37:11;4.77;;;1.73;;
46589;SDS011;32313;48.722;9.362;2022-10-16T10:40:08;4.57;;;1.92;;
46589;SDS011;32313;48.722;9.362;2022-10-16T10:42:52;12.27;;;9.30;;
46589;SDS011;32313;48.722;9.362;2022-10-16T10:45:25;3.83;;;2.80;;
46589;SDS011;32313;48.722;9.362;2022-10-16T10:53:10;4.72;;;2.33;;
46589;SDS011;32313;48.722;9.362;2022-10-16T10:55:50;2.72;;;2.17;;
46589;SDS011;32313;48.722;9.362;2022-10-16T11:01:20;5.93;;;1.73;;
46589;SDS011;32313;48.722;9.362;2022-10-16T11:07:09;18.08;;;9.65;;
46589;SDS011;32313;48.722;9.362;2022-10-16T11:09:51;17.83;;;9.02;;
46589;SDS011;32313;48.722;9.362;2022-10-16T11:12:24;11.60;;;5.22;;
46589;SDS011;32313;48.722;9.362;2022-10-16T11:15:04;9.20;;;6.32;;
46589;SDS011;32313;48.722;9.362;2022-10-16T11:17:45;2.30;;;1.70;;
46589;SDS011;32313;48.722;9.362;2022-10-16T11:20:19;2.58;;;1.92;;
46589;SDS011;32313;48.722;9.362;2022-10-16T11:23:02;4.30;;;1.65;;
46589;SDS011;32313;48.722;9.362;2022-10-16T11:25:43;2.25;;;1.40;;
46589;SDS011;32313;48.722;9.362;2022-10-16T11:31:10;2.15;;;1.50;;
46589;SDS011;32313;48.722;9.362;2022-10-16T11:33:49;4.60;;;1.35;;
46589;SDS011;32313;48.722;9.362;2022-10-16T11:36:25;2.00;;;1.40;;
46589;SDS011;32313;48.722;9.362;2022-10-16T11:41:46;3.30;;;1.52;;
46589;SDS011;32313;48.722;9.362;2022-10-16T11:47:25;3.65;;;1.40;;
46589;SDS011;32313;48.722;9.362;2022-10-16T11:50:02;1.30;;;1.20;;
46589;SDS011;32313;48.722;9.362;2022-10-16T11:55:31;3.63;;;1.40;;
46589;SDS011;32313;48.722;9.362;2022-10-16T11:58:03;1.88;;;1.40;;
46589;SDS011;32313;48.722;9.362;2022-10-16T12:00:55;2.35;;;1.38;;
46589;SDS011;32313;48.722;9.362;2022-10-16T12:03:55;5.85;;;1.30;;
46589;SDS011;32313;48.722;9.362;2022-10-16T12:06:45;3.97;;;1.30;;
46589;SDS011;32313;48.722;9.362;2022-10-16T12:09:20;3.08;;;1.30;;
46589;SDS011;32313;48.722;9.362;2022-10-16T12:11:51;3.47;;;1.20;;
46589;SDS011;32313;48.722;9.362;2022-10-16T12:17:00;1.75;;;1.40;;
46589;SDS011;32313;48.722;9.362;2022-10-16T12:20:32;1.30;;;1.20;;
46589;SDS011;32313;48.722;9.362;2022-10-16T12:22:42;1.38;;;1.20;;
46589;SDS011;32313;48.722;9.362;2022-10-16T12:25:23;2.17;;;1.20;;
46589;SDS011;32313;48.722;9.362;2022-10-16T12:27:59;1.80;;;1.35;;
46589;SDS011;32313;48.722;9.362;2022-10-16T12:30:29;1.92;;;1.20;;
46589;SDS011;32313;48.722;9.362;2022-10-16T12:32:58;2.70;;;1.30;;
46589;SDS011;32313;48.722;9.362;2022-10-16T12:35:29;3.00;;;1.02;;
46589;SDS011;32313;48.722;9.362;2022-10-16T12:38:07;3.40;;;1.33;;
46589;SDS011;32313;48.722;9.362;2022-10-16T12:41:08;2.50;;;1.42;;
46589;SDS011;32313;48.722;9.362;2022-10-16T12:43:44;1.48;;;1.38;;
46589;SDS011;32313;48.722;9.362;2022-10-16T12:48:37;2.55;;;1.20;;
46589;SDS011;32313;48.722;9.362;2022-10-16T12:56:58;2.13;;;1.20;;
46589;SDS011;32313;48.722;9.362;2022-10-16T12:59:41;2.88;;;1.45;;
46589;SDS011;32313;48.722;9.362;2022-10-16T13:05:20;3.75;;;1.30;;
46589;SDS011;32313;48.722;9.362;2022-10-16T13:10:41;1.35;;;1.25;;
46589;SDS011;32313;48.722;9.362;2022-10-16T13:15:57;5.95;;;3.92;;
46589;SDS011;32313;48.722;9.362;2022-10-16T13:24:14;3.35;;;3.05;;
46589;SDS011;32313;48.722;9.362;2022-10-16T13:26:53;3.92;;;2.67;;
46589;SDS011;32313;48.722;9.362;2022-10-16T13:29:29;4.32;;;3.13;;
46589;SDS011;32313;48.722;9.362;2022-10-16T13:31:56;1.77;;;1.38;;
46589;SDS011;32313;48.722;9.362;2022-10-16T13:34:23;1.83;;;1.42;;
46589;SDS011;32313;48.722;9.362;2022-10-16T13:36:51;2.38;;;1.35;;
46589;SDS011;32313;48.722;9.362;2022-10-16T13:39:25;2.22;;;1.52;;
46589;SDS011;32313;48.722;9.362;2022-10-16T13:42:12;2.47;;;1.30;;
46589;SDS011;32313;48.722;9.362;2022-10-16T13:44:49;3.25;;;1.30;;
46589;SDS011;32313;48.722;9.362;2022-10-16T13:47:17;5.15;;;1.60;;
46589;SDS011;32313;48.722;9.362;2022-10-16T13:49:45;1.55;;;1.23;;
46589;SDS011;32313;48.722;9.362;2022-10-16T13:52:16;1.83;;;1.40;;
46589;SDS011;32313;48.722;9.362;2022-10-16T13:54:46;1.75;;;1.50;;
46589;SDS011;32313;48.722;9.362;2022-10-16T13:57:15;2.35;;;1.52;;
46589;SDS011;32313;48.722;9.362;2022-10-16T13:59:41;4.20;;;1.45;;
46589;SDS011;32313;48.722;9.362;2022-10-16T14:04:50;4.80;;;2.90;;
46589;SDS011;32313;48.722;9.362;2022-10-16T14:07:20;2.67;;;1.95;;
46589;SDS011;32313;48.722;9.362;2022-10-16T14:09:54;6.43;;;4.25;;
46589;SDS011;32313;48.722;9.362;2022-10-16T14:12:20;5.43;;;3.08;;
46589;SDS011;32313;48.722;9.362;2022-10-16T14:14:52;6.18;;;2.65;;
46589;SDS011;32313;48.722;9.362;2022-10-16T14:17:23;2.67;;;2.03;;
46589;SDS011;32313;48.722;9.362;2022-10-16T14:19:59;4.72;;;2.03;;
46589;SDS011;32313;48.722;9.362;2022-10-16T14:24:57;3.42;;;2.28;;
46589;SDS011;32313;48.722;9.362;2022-10-16T14:27:34;3.35;;;2.20;;
46589;SDS011;32313;48.722;9.362;2022-10-16T14:30:19;14.90;;;10.33;;
46589;SDS011;32313;48.722;9.362;2022-10-16T14:32:59;4.57;;;2.70;;
46589;SDS011;32313;48.722;9.362;2022-10-16T14:35:31;4.30;;;3.70;;
46589;SDS011;32313;48.722;9.362;2022-10-16T14:38:02;7.03;;;2.57;;
46589;SDS011;32313;48.722;9.362;2022-10-16T14:40:31;3.47;;;2.20;;
46589;SDS011;32313;48.722;9.362;2022-10-16T14:42:59;5.73;;;2.50;;
46589;SDS011;32313;48.722;9.362;2022-10-16T14:45:30;6.07;;;2.10;;
46589;SDS011;32313;48.722;9.362;2022-10-16T14:47:59;5.27;;;2.83;;
46589;SDS011;32313;48.722;9.362;2022-10-16T14:50:28;6.63;;;2.70;;
46589;SDS011;32313;48.722;9.362;2022-10-16T14:52:53;6.77;;;2.80;;
46589;SDS011;32313;48.722;9.362;2022-10-16T14:55:19;7.40;;;2.53;;
46589;SDS011;32313;48.722;9.362;2022-10-16T14:57:46;11.73;;;3.50;;
46589;SDS011;32313;48.722;9.362;2022-10-16T15:00:19;5.07;;;2.90;;
46589;SDS011;32313;48.722;9.362;2022-10-16T15:02:48;5.27;;;2.70;;
46589;SDS011;32313;48.722;9.362;2022-10-16T15:05:19;5.77;;;2.53;;
46589;SDS011;32313;48.722;9.362;2022-10-16T15:07:47;8.80;;;2.40;;
46589;SDS011;32313;48.722;9.362;2022-10-16T15:10:14;4.67;;;2.00;;
46589;SDS011;32313;48.722;9.362;2022-10-16T15:12:41;10.43;;;2.50;;
46589;SDS011;32313;48.722;9.362;2022-10-16T15:17:39;7.13;;;5.27;;
46589;SDS011;32313;48.722;9.362;2022-10-16T15:20:04;7.67;;;3.10;;
46589;SDS011;32313;48.722;9.362;2022-10-16T15:22:31;5.03;;;2.30;;
46589;SDS011;32313;48.722;9.362;2022-10-16T15:24:56;6.87;;;2.10;;
46589;SDS011;32313;48.722;9.362;2022-10-16T15:27:22;11.13;;;2.73;;
46589;SDS011;32313;48.722;9.362;2022-10-16T15:29:47;5.13;;;2.27;;
46589;SDS011;32313;48.722;9.362;2022-10-16T15:32:13;12.70;;;4.20;;
46589;SDS011;32313;48.722;9.362;2022-10-16T15:34:39;6.43;;;2.77;;
46589;SDS011;32313;48.722;9.362;2022-10-16T15:37:04;8.03;;;2.50;;
46589;SDS011;32313;48.722;9.362;2022-10-16T15:39:30;3.43;;;2.40;;
46589;SDS011;32313;48.722;9.362;2022-10-16T15:41:55;11.43;;;2.70;;
46589;SDS011;32313;48.722;9.362;2022-10-16T15:44:21;6.83;;;3.10;;
46589;SDS011;32313;48.722;9.362;2022-10-16T15:46:48;6.27;;;3.20;;
46589;SDS011;32313;48.722;9.362;2022-10-16T15:49:13;6.40;;;2.80;;
46589;SDS011;32313;48.722;9.362;2022-10-16T15:51:40;8.50;;;3.63;;
46589;SDS011;32313;48.722;9.362;2022-10-16T15:54:07;9.47;;;2.93;;
46589;SDS011;32313;48.722;9.362;2022-10-16T15:56:33;12.80;;;3.07;;
46589;SDS011;32313;48.722;9.362;2022-10-16T15:58:59;7.80;;;2.53;;
46589;SDS011;32313;48.722;9.362;2022-10-16T16:01:26;7.60;;;2.83;;
46589;SDS011;32313;48.722;9.362;2022-10-16T16:03:52;11.13;;;3.20;;
46589;SDS011;32313;48.722;9.362;2022-10-16T16:06:18;6.50;;;3.17;;
46589;SDS011;32313;48.722;9.362;2022-10-16T16:08:45;10.13;;;3.10;;
46589;SDS011;32313;48.722;9.362;2022-10-16T16:11:11;10.13;;;3.37;;
46589;SDS011;32313;48.722;9.362;2022-10-16T16:13:39;11.10;;;4.90;;
46589;SDS011;32313;48.722;9.362;2022-10-16T16:16:06;21.07;;;4.53;;
46589;SDS011;32313;48.722;9.362;2022-10-16T16:18:33;16.70;;;5.53;;
46589;SDS011;32313;48.722;9.362;2022-10-16T16:20:58;10.40;;;3.97;;
46589;SDS011;32313;48.722;9.362;2022-10-16T16:23:24;9.07;;;3.33;;
46589;SDS011;32313;48.722;9.362;2022-10-16T16:26:02;9.10;;;3.37;;
46589;SDS011;32313;48.722;9.362;2022-10-16T16:28:38;12.83;;;3.67;;
46589;SDS011;32313;48.722;9.362;2022-10-16T16:31:05;11.20;;;4.27;;
46589;SDS011;32313;48.722;9.362;2022-10-16T16:33:31;10.27;;;4.00;;
46589;SDS011;32313;48.722;9.362;2022-10-16T16:35:58;7.43;;;4.00;;
46589;SDS011;32313;48.722;9.362;2022-10-16T16:38:24;11.27;;;4.03;;
46589;SDS011;32313;48.722;9.362;2022-10-16T16:40:51;15.23;;;4.37;;